sensor_id;sensor_type;location;lat;lon;timestamp;P1;durP1;ratioP1;P2;durP2;ratioP2
71166;SDS011;58864;45.928;20.078;2023-08-08T00:00:33;2.42;;;0.30;;
71166;SDS011;58864;45.928;20.078;2023-08-08T00:02:58;2.70;;;0.23;;
71166;SDS011;58864;45.928;20.078;2023-08-08T00:05:22;2.27;;;0.40;;
71166;SDS011;58864;45.928;20.078;2023-08-08T00:07:47;2.67;;;0.75;;
71166;SDS011;58864;45.928;20.078;2023-08-08T00:10:12;2.20;;;0.30;;
71166;SDS011;58864;45.928;20.078;2023-08-08T00:12:36;1.40;;;0.23;;
71166;SDS011;58864;45.928;20.078;2023-08-08T00:15:00;3.67;;;0.40;;
71166;SDS011;58864;45.928;20.078;2023-08-08T00:17:25;2.10;;;0.30;;
71166;SDS011;58864;45.928;20.078;2023-08-08T00:19:49;2.28;;;0.40;;
71166;SDS011;58864;45.928;20.078;2023-08-08T00:22:14;1.97;;;0.30;;
71166;SDS011;58864;45.928;20.078;2023-08-08T00:24:38;1.47;;;0.20;;
71166;SDS011;58864;45.928;20.078;2023-08-08T00:27:03;3.75;;;0.40;;
71166;SDS011;58864;45.928;20.078;2023-08-08T00:29:27;1.97;;;0.30;;
71166;SDS011;58864;45.928;20.078;2023-08-08T00:31:52;2.07;;;0.23;;
71166;SDS011;58864;45.928;20.078;2023-08-08T00:34:16;1.75;;;0.30;;
71166;SDS011;58864;45.928;20.078;2023-08-08T00:36:41;1.97;;;0.30;;
71166;SDS011;58864;45.928;20.078;2023-08-08T00:39:05;2.43;;;0.40;;
71166;SDS011;58864;45.928;20.078;2023-08-08T00:41:30;1.93;;;0.40;;
71166;SDS011;58864;45.928;20.078;2023-08-08T00:43:54;4.77;;;0.43;;
71166;SDS011;58864;45.928;20.078;2023-08-08T00:46:20;1.80;;;0.30;;
71166;SDS011;58864;45.928;20.078;2023-08-08T00:48:45;4.63;;;0.40;;
71166;SDS011;58864;45.928;20.078;2023-08-08T00:51:10;2.23;;;0.30;;
71166;SDS011;58864;45.928;20.078;2023-08-08T00:53:34;2.30;;;0.30;;
71166;SDS011;58864;45.928;20.078;2023-08-08T00:55:59;1.97;;;0.33;;
71166;SDS011;58864;45.928;20.078;2023-08-08T00:58:24;4.00;;;0.60;;
71166;SDS011;58864;45.928;20.078;2023-08-08T01:00:49;2.70;;;0.30;;
71166;SDS011;58864;45.928;20.078;2023-08-08T01:03:14;2.33;;;0.30;;
71166;SDS011;58864;45.928;20.078;2023-08-08T01:05:41;2.67;;;0.30;;
71166;SDS011;58864;45.928;20.078;2023-08-08T01:08:08;2.80;;;0.40;;
71166;SDS011;58864;45.928;20.078;2023-08-08T01:10:39;3.35;;;0.30;;
71166;SDS011;58864;45.928;20.078;2023-08-08T01:13:05;1.80;;;0.27;;
71166;SDS011;58864;45.928;20.078;2023-08-08T01:15:31;2.47;;;0.40;;
71166;SDS011;58864;45.928;20.078;2023-08-08T01:17:59;3.90;;;0.50;;
71166;SDS011;58864;45.928;20.078;2023-08-08T01:20:24;1.73;;;0.30;;
71166;SDS011;58864;45.928;20.078;2023-08-08T01:25:41;3.08;;;0.60;;
71166;SDS011;58864;45.928;20.078;2023-08-08T01:28:06;2.65;;;0.50;;
71166;SDS011;58864;45.928;20.078;2023-08-08T01:30:31;3.20;;;0.50;;
71166;SDS011;58864;45.928;20.078;2023-08-08T01:32:55;2.00;;;0.38;;
71166;SDS011;58864;45.928;20.078;2023-08-08T01:35:20;2.23;;;0.40;;
71166;SDS011;58864;45.928;20.078;2023-08-08T01:37:50;3.13;;;0.50;;
71166;SDS011;58864;45.928;20.078;2023-08-08T01:40:17;2.30;;;0.30;;
71166;SDS011;58864;45.928;20.078;2023-08-08T01:42:43;2.22;;;0.40;;
71166;SDS011;58864;45.928;20.078;2023-08-08T01:45:09;4.50;;;0.60;;
71166;SDS011;58864;45.928;20.078;2023-08-08T01:47:35;2.65;;;0.30;;
71166;SDS011;58864;45.928;20.078;2023-08-08T01:49:59;2.93;;;0.37;;
71166;SDS011;58864;45.928;20.078;2023-08-08T01:52:24;2.55;;;0.40;;
71166;SDS011;58864;45.928;20.078;2023-08-08T01:54:48;2.90;;;0.47;;
71166;SDS011;58864;45.928;20.078;2023-08-08T01:57:13;2.70;;;0.40;;
71166;SDS011;58864;45.928;20.078;2023-08-08T01:59:37;2.30;;;0.30;;
71166;SDS011;58864;45.928;20.078;2023-08-08T02:02:01;2.43;;;0.50;;
71166;SDS011;58864;45.928;20.078;2023-08-08T02:04:26;2.53;;;0.40;;
71166;SDS011;58864;45.928;20.078;2023-08-08T02:06:51;3.67;;;0.55;;
71166;SDS011;58864;45.928;20.078;2023-08-08T02:09:15;3.03;;;0.50;;
71166;SDS011;58864;45.928;20.078;2023-08-08T02:11:40;2.80;;;0.70;;
71166;SDS011;58864;45.928;20.078;2023-08-08T02:14:04;3.13;;;0.50;;
71166;SDS011;58864;45.928;20.078;2023-08-08T02:16:29;2.70;;;0.50;;
71166;SDS011;58864;45.928;20.078;2023-08-08T02:18:53;2.50;;;0.50;;
71166;SDS011;58864;45.928;20.078;2023-08-08T02:21:17;2.58;;;0.50;;
71166;SDS011;58864;45.928;20.078;2023-08-08T02:23:42;3.20;;;0.50;;
71166;SDS011;58864;45.928;20.078;2023-08-08T02:26:06;3.97;;;0.60;;
71166;SDS011;58864;45.928;20.078;2023-08-08T02:28:32;3.60;;;0.68;;
71166;SDS011;58864;45.928;20.078;2023-08-08T02:30:56;2.60;;;0.60;;
71166;SDS011;58864;45.928;20.078;2023-08-08T02:33:20;3.35;;;0.55;;
71166;SDS011;58864;45.928;20.078;2023-08-08T02:35:45;3.57;;;0.50;;
71166;SDS011;58864;45.928;20.078;2023-08-08T02:38:09;4.73;;;0.60;;
71166;SDS011;58864;45.928;20.078;2023-08-08T02:40:34;2.95;;;0.55;;
71166;SDS011;58864;45.928;20.078;2023-08-08T02:42:58;3.47;;;0.57;;
71166;SDS011;58864;45.928;20.078;2023-08-08T02:45:23;3.13;;;0.67;;
71166;SDS011;58864;45.928;20.078;2023-08-08T02:47:47;2.80;;;0.40;;
71166;SDS011;58864;45.928;20.078;2023-08-08T02:50:12;2.83;;;0.60;;
71166;SDS011;58864;45.928;20.078;2023-08-08T02:52:36;2.70;;;0.43;;
71166;SDS011;58864;45.928;20.078;2023-08-08T02:55:00;3.83;;;0.70;;
71166;SDS011;58864;45.928;20.078;2023-08-08T02:57:26;3.60;;;0.50;;
71166;SDS011;58864;45.928;20.078;2023-08-08T02:59:51;2.40;;;0.40;;
71166;SDS011;58864;45.928;20.078;2023-08-08T03:02:15;3.80;;;0.50;;
71166;SDS011;58864;45.928;20.078;2023-08-08T03:04:40;3.77;;;0.63;;
71166;SDS011;58864;45.928;20.078;2023-08-08T03:07:04;4.57;;;0.73;;
71166;SDS011;58864;45.928;20.078;2023-08-08T03:09:29;3.17;;;0.60;;
71166;SDS011;58864;45.928;20.078;2023-08-08T03:11:53;5.13;;;0.57;;
71166;SDS011;58864;45.928;20.078;2023-08-08T03:14:18;3.10;;;0.60;;
71166;SDS011;58864;45.928;20.078;2023-08-08T03:16:42;3.03;;;0.60;;
71166;SDS011;58864;45.928;20.078;2023-08-08T03:19:07;2.83;;;0.47;;
71166;SDS011;58864;45.928;20.078;2023-08-08T03:21:32;2.92;;;0.60;;
71166;SDS011;58864;45.928;20.078;2023-08-08T03:23:56;2.77;;;0.60;;
71166;SDS011;58864;45.928;20.078;2023-08-08T03:26:21;3.25;;;0.60;;
71166;SDS011;58864;45.928;20.078;2023-08-08T03:28:46;4.20;;;0.80;;
71166;SDS011;58864;45.928;20.078;2023-08-08T03:31:14;3.15;;;0.63;;
71166;SDS011;58864;45.928;20.078;2023-08-08T03:33:38;2.87;;;0.67;;
71166;SDS011;58864;45.928;20.078;2023-08-08T03:36:03;4.90;;;0.60;;
71166;SDS011;58864;45.928;20.078;2023-08-08T03:38:28;2.90;;;0.68;;
71166;SDS011;58864;45.928;20.078;2023-08-08T03:40:52;3.93;;;0.60;;
71166;SDS011;58864;45.928;20.078;2023-08-08T03:43:16;4.60;;;0.70;;
71166;SDS011;58864;45.928;20.078;2023-08-08T03:45:41;4.00;;;0.68;;
71166;SDS011;58864;45.928;20.078;2023-08-08T03:48:05;3.20;;;0.63;;
71166;SDS011;58864;45.928;20.078;2023-08-08T03:50:30;3.17;;;0.73;;
71166;SDS011;58864;45.928;20.078;2023-08-08T03:52:54;3.47;;;0.70;;
71166;SDS011;58864;45.928;20.078;2023-08-08T03:55:19;4.73;;;0.70;;
71166;SDS011;58864;45.928;20.078;2023-08-08T03:57:43;3.57;;;0.70;;
71166;SDS011;58864;45.928;20.078;2023-08-08T04:00:08;4.28;;;0.63;;
71166;SDS011;58864;45.928;20.078;2023-08-08T04:02:33;3.40;;;0.80;;
71166;SDS011;58864;45.928;20.078;2023-08-08T04:04:57;3.93;;;0.60;;
71166;SDS011;58864;45.928;20.078;2023-08-08T04:07:21;4.55;;;0.88;;
71166;SDS011;58864;45.928;20.078;2023-08-08T04:09:46;3.37;;;0.53;;
71166;SDS011;58864;45.928;20.078;2023-08-08T04:12:10;3.57;;;0.80;;
71166;SDS011;58864;45.928;20.078;2023-08-08T04:14:35;4.15;;;0.90;;
71166;SDS011;58864;45.928;20.078;2023-08-08T04:16:59;3.87;;;0.70;;
71166;SDS011;58864;45.928;20.078;2023-08-08T04:19:24;2.77;;;0.50;;
71166;SDS011;58864;45.928;20.078;2023-08-08T04:21:48;3.20;;;0.88;;
71166;SDS011;58864;45.928;20.078;2023-08-08T04:24:13;3.60;;;0.80;;
71166;SDS011;58864;45.928;20.078;2023-08-08T04:26:37;4.17;;;0.90;;
71166;SDS011;58864;45.928;20.078;2023-08-08T04:29:03;6.95;;;1.55;;
71166;SDS011;58864;45.928;20.078;2023-08-08T04:31:27;3.30;;;0.80;;
71166;SDS011;58864;45.928;20.078;2023-08-08T04:33:53;3.40;;;0.80;;
71166;SDS011;58864;45.928;20.078;2023-08-08T04:36:22;4.65;;;1.02;;
71166;SDS011;58864;45.928;20.078;2023-08-08T04:38:46;3.50;;;0.80;;
71166;SDS011;58864;45.928;20.078;2023-08-08T04:41:11;4.03;;;0.97;;
71166;SDS011;58864;45.928;20.078;2023-08-08T04:43:35;2.77;;;0.60;;
71166;SDS011;58864;45.928;20.078;2023-08-08T04:46:00;5.07;;;1.17;;
71166;SDS011;58864;45.928;20.078;2023-08-08T04:48:24;4.07;;;0.90;;
71166;SDS011;58864;45.928;20.078;2023-08-08T04:50:49;3.60;;;0.70;;
71166;SDS011;58864;45.928;20.078;2023-08-08T04:53:13;4.37;;;0.80;;
71166;SDS011;58864;45.928;20.078;2023-08-08T04:55:37;3.88;;;0.63;;
71166;SDS011;58864;45.928;20.078;2023-08-08T04:58:04;5.10;;;0.80;;
71166;SDS011;58864;45.928;20.078;2023-08-08T05:00:29;3.58;;;0.80;;
71166;SDS011;58864;45.928;20.078;2023-08-08T05:02:53;4.47;;;0.83;;
71166;SDS011;58864;45.928;20.078;2023-08-08T05:05:17;3.50;;;0.60;;
71166;SDS011;58864;45.928;20.078;2023-08-08T05:07:42;3.57;;;0.60;;
71166;SDS011;58864;45.928;20.078;2023-08-08T05:10:06;3.17;;;0.80;;
71166;SDS011;58864;45.928;20.078;2023-08-08T05:12:31;3.70;;;0.67;;
71166;SDS011;58864;45.928;20.078;2023-08-08T05:14:55;3.27;;;0.60;;
71166;SDS011;58864;45.928;20.078;2023-08-08T05:17:20;4.83;;;0.60;;
71166;SDS011;58864;45.928;20.078;2023-08-08T05:19:44;4.38;;;0.77;;
71166;SDS011;58864;45.928;20.078;2023-08-08T05:22:09;4.57;;;0.67;;
71166;SDS011;58864;45.928;20.078;2023-08-08T05:24:33;4.40;;;1.30;;
71166;SDS011;58864;45.928;20.078;2023-08-08T05:26:59;2.65;;;0.50;;
71166;SDS011;58864;45.928;20.078;2023-08-08T05:29:23;3.40;;;0.50;;
71166;SDS011;58864;45.928;20.078;2023-08-08T05:31:48;3.83;;;0.70;;
71166;SDS011;58864;45.928;20.078;2023-08-08T05:34:13;4.72;;;0.70;;
71166;SDS011;58864;45.928;20.078;2023-08-08T05:36:37;4.15;;;0.60;;
71166;SDS011;58864;45.928;20.078;2023-08-08T05:39:02;3.90;;;0.87;;
71166;SDS011;58864;45.928;20.078;2023-08-08T05:41:27;5.88;;;0.88;;
71166;SDS011;58864;45.928;20.078;2023-08-08T05:43:51;3.53;;;0.90;;
71166;SDS011;58864;45.928;20.078;2023-08-08T05:46:15;5.40;;;0.80;;
71166;SDS011;58864;45.928;20.078;2023-08-08T05:48:40;3.27;;;0.80;;
71166;SDS011;58864;45.928;20.078;2023-08-08T05:51:04;3.13;;;0.60;;
71166;SDS011;58864;45.928;20.078;2023-08-08T05:53:29;3.47;;;0.70;;
71166;SDS011;58864;45.928;20.078;2023-08-08T05:55:54;4.73;;;0.60;;
71166;SDS011;58864;45.928;20.078;2023-08-08T05:58:18;4.57;;;0.80;;
71166;SDS011;58864;45.928;20.078;2023-08-08T06:00:43;3.90;;;0.70;;
71166;SDS011;58864;45.928;20.078;2023-08-08T06:03:07;3.78;;;0.80;;
71166;SDS011;58864;45.928;20.078;2023-08-08T06:05:32;3.57;;;0.77;;
71166;SDS011;58864;45.928;20.078;2023-08-08T06:07:57;4.70;;;0.70;;
71166;SDS011;58864;45.928;20.078;2023-08-08T06:10:21;3.73;;;0.70;;
71166;SDS011;58864;45.928;20.078;2023-08-08T06:12:46;3.58;;;0.85;;
71166;SDS011;58864;45.928;20.078;2023-08-08T06:15:10;4.77;;;0.80;;
71166;SDS011;58864;45.928;20.078;2023-08-08T06:17:35;3.43;;;0.90;;
71166;SDS011;58864;45.928;20.078;2023-08-08T06:19:59;3.35;;;0.80;;
71166;SDS011;58864;45.928;20.078;2023-08-08T06:22:24;4.90;;;0.70;;
71166;SDS011;58864;45.928;20.078;2023-08-08T06:24:48;3.27;;;0.67;;
71166;SDS011;58864;45.928;20.078;2023-08-08T06:27:13;4.60;;;1.00;;
71166;SDS011;58864;45.928;20.078;2023-08-08T06:29:37;4.83;;;0.77;;
71166;SDS011;58864;45.928;20.078;2023-08-08T06:32:02;5.23;;;0.80;;
71166;SDS011;58864;45.928;20.078;2023-08-08T06:34:26;3.22;;;0.80;;
71166;SDS011;58864;45.928;20.078;2023-08-08T06:36:51;5.37;;;0.70;;
71166;SDS011;58864;45.928;20.078;2023-08-08T06:39:15;4.43;;;0.90;;
71166;SDS011;58864;45.928;20.078;2023-08-08T06:41:40;3.17;;;0.75;;
71166;SDS011;58864;45.928;20.078;2023-08-08T06:44:07;4.73;;;0.80;;
71166;SDS011;58864;45.928;20.078;2023-08-08T06:46:31;5.20;;;0.80;;
71166;SDS011;58864;45.928;20.078;2023-08-08T06:48:56;4.07;;;0.90;;
71166;SDS011;58864;45.928;20.078;2023-08-08T06:51:23;4.18;;;0.80;;
71166;SDS011;58864;45.928;20.078;2023-08-08T06:53:50;7.22;;;1.00;;
71166;SDS011;58864;45.928;20.078;2023-08-08T06:56:15;3.50;;;0.90;;
71166;SDS011;58864;45.928;20.078;2023-08-08T06:58:40;4.05;;;0.70;;
71166;SDS011;58864;45.928;20.078;2023-08-08T07:01:04;3.47;;;0.73;;
71166;SDS011;58864;45.928;20.078;2023-08-08T07:03:28;4.17;;;1.03;;
71166;SDS011;58864;45.928;20.078;2023-08-08T07:05:53;5.80;;;1.40;;
71166;SDS011;58864;45.928;20.078;2023-08-08T07:08:18;7.20;;;2.10;;
71166;SDS011;58864;45.928;20.078;2023-08-08T07:10:43;3.83;;;0.90;;
71166;SDS011;58864;45.928;20.078;2023-08-08T07:13:07;5.43;;;0.77;;
71166;SDS011;58864;45.928;20.078;2023-08-08T07:15:32;5.20;;;0.93;;
71166;SDS011;58864;45.928;20.078;2023-08-08T07:17:56;5.17;;;1.10;;
71166;SDS011;58864;45.928;20.078;2023-08-08T07:20:21;5.95;;;1.23;;
71166;SDS011;58864;45.928;20.078;2023-08-08T07:22:46;7.97;;;0.97;;
71166;SDS011;58864;45.928;20.078;2023-08-08T07:25:11;3.90;;;0.95;;
71166;SDS011;58864;45.928;20.078;2023-08-08T07:27:35;4.03;;;0.97;;
71166;SDS011;58864;45.928;20.078;2023-08-08T07:30:00;5.63;;;1.10;;
71166;SDS011;58864;45.928;20.078;2023-08-08T07:32:25;4.15;;;0.80;;
71166;SDS011;58864;45.928;20.078;2023-08-08T07:34:49;4.83;;;0.70;;
71166;SDS011;58864;45.928;20.078;2023-08-08T07:37:14;3.83;;;0.88;;
71166;SDS011;58864;45.928;20.078;2023-08-08T07:39:38;4.53;;;0.90;;
71166;SDS011;58864;45.928;20.078;2023-08-08T07:42:03;4.23;;;0.90;;
71166;SDS011;58864;45.928;20.078;2023-08-08T07:44:27;4.05;;;1.05;;
71166;SDS011;58864;45.928;20.078;2023-08-08T07:46:52;6.80;;;1.00;;
71166;SDS011;58864;45.928;20.078;2023-08-08T07:49:16;3.90;;;0.80;;
71166;SDS011;58864;45.928;20.078;2023-08-08T07:51:41;3.13;;;0.88;;
71166;SDS011;58864;45.928;20.078;2023-08-08T07:54:06;4.13;;;0.90;;
71166;SDS011;58864;45.928;20.078;2023-08-08T07:56:32;3.78;;;0.98;;
71166;SDS011;58864;45.928;20.078;2023-08-08T07:58:57;5.67;;;0.90;;
71166;SDS011;58864;45.928;20.078;2023-08-08T08:01:21;6.18;;;0.90;;
71166;SDS011;58864;45.928;20.078;2023-08-08T08:03:46;4.03;;;1.07;;
71166;SDS011;58864;45.928;20.078;2023-08-08T08:06:11;4.10;;;0.95;;
71166;SDS011;58864;45.928;20.078;2023-08-08T08:08:36;5.82;;;0.90;;
71166;SDS011;58864;45.928;20.078;2023-08-08T08:11:01;4.83;;;0.60;;
71166;SDS011;58864;45.928;20.078;2023-08-08T08:13:26;5.00;;;0.90;;
71166;SDS011;58864;45.928;20.078;2023-08-08T08:15:50;3.50;;;0.83;;
71166;SDS011;58864;45.928;20.078;2023-08-08T08:18:15;5.17;;;0.97;;
71166;SDS011;58864;45.928;20.078;2023-08-08T08:20:41;3.97;;;0.80;;
71166;SDS011;58864;45.928;20.078;2023-08-08T08:23:05;3.40;;;0.67;;
71166;SDS011;58864;45.928;20.078;2023-08-08T08:25:29;3.53;;;0.80;;
71166;SDS011;58864;45.928;20.078;2023-08-08T08:27:56;4.72;;;0.93;;
71166;SDS011;58864;45.928;20.078;2023-08-08T08:30:20;3.37;;;0.70;;
71166;SDS011;58864;45.928;20.078;2023-08-08T08:32:46;3.88;;;0.70;;
71166;SDS011;58864;45.928;20.078;2023-08-08T08:35:11;3.17;;;0.70;;
71166;SDS011;58864;45.928;20.078;2023-08-08T08:37:37;5.03;;;0.90;;
71166;SDS011;58864;45.928;20.078;2023-08-08T08:40:01;5.30;;;0.80;;
71166;SDS011;58864;45.928;20.078;2023-08-08T08:42:28;3.15;;;0.70;;
71166;SDS011;58864;45.928;20.078;2023-08-08T08:44:54;2.80;;;0.40;;
71166;SDS011;58864;45.928;20.078;2023-08-08T08:47:21;4.13;;;0.90;;
71166;SDS011;58864;45.928;20.078;2023-08-08T08:49:47;4.28;;;0.80;;
71166;SDS011;58864;45.928;20.078;2023-08-08T08:52:12;4.63;;;1.00;;
71166;SDS011;58864;45.928;20.078;2023-08-08T08:54:36;4.97;;;0.95;;
71166;SDS011;58864;45.928;20.078;2023-08-08T08:57:01;5.20;;;0.97;;
71166;SDS011;58864;45.928;20.078;2023-08-08T08:59:25;3.85;;;0.75;;
71166;SDS011;58864;45.928;20.078;2023-08-08T09:01:50;5.00;;;1.00;;
71166;SDS011;58864;45.928;20.078;2023-08-08T09:04:15;3.90;;;0.80;;
71166;SDS011;58864;45.928;20.078;2023-08-08T09:06:43;4.22;;;1.00;;
71166;SDS011;58864;45.928;20.078;2023-08-08T09:09:07;4.70;;;0.77;;
71166;SDS011;58864;45.928;20.078;2023-08-08T09:11:32;4.28;;;0.70;;
71166;SDS011;58864;45.928;20.078;2023-08-08T09:13:57;4.27;;;0.87;;
71166;SDS011;58864;45.928;20.078;2023-08-08T09:16:21;4.70;;;0.97;;
71166;SDS011;58864;45.928;20.078;2023-08-08T09:18:45;3.80;;;0.75;;
71166;SDS011;58864;45.928;20.078;2023-08-08T09:21:10;4.60;;;1.10;;
71166;SDS011;58864;45.928;20.078;2023-08-08T09:23:36;5.53;;;1.07;;
71166;SDS011;58864;45.928;20.078;2023-08-08T09:26:02;5.32;;;0.98;;
71166;SDS011;58864;45.928;20.078;2023-08-08T09:28:27;4.38;;;0.90;;
71166;SDS011;58864;45.928;20.078;2023-08-08T09:30:52;5.83;;;1.00;;
71166;SDS011;58864;45.928;20.078;2023-08-08T09:33:17;3.45;;;0.90;;
71166;SDS011;58864;45.928;20.078;2023-08-08T09:35:42;4.30;;;0.97;;
71166;SDS011;58864;45.928;20.078;2023-08-08T09:38:06;5.87;;;1.10;;
71166;SDS011;58864;45.928;20.078;2023-08-08T09:40:31;4.85;;;1.05;;
71166;SDS011;58864;45.928;20.078;2023-08-08T09:42:56;9.95;;;1.17;;
71166;SDS011;58864;45.928;20.078;2023-08-08T09:45:20;4.83;;;0.90;;
71166;SDS011;58864;45.928;20.078;2023-08-08T09:47:46;5.60;;;1.20;;
71166;SDS011;58864;45.928;20.078;2023-08-08T09:50:12;5.68;;;0.82;;
71166;SDS011;58864;45.928;20.078;2023-08-08T09:52:37;6.47;;;1.00;;
71166;SDS011;58864;45.928;20.078;2023-08-08T09:55:04;4.00;;;0.77;;
71166;SDS011;58864;45.928;20.078;2023-08-08T09:57:29;5.03;;;1.00;;
71166;SDS011;58864;45.928;20.078;2023-08-08T09:59:54;3.53;;;0.80;;
71166;SDS011;58864;45.928;20.078;2023-08-08T10:02:19;5.28;;;1.10;;
71166;SDS011;58864;45.928;20.078;2023-08-08T10:04:44;4.87;;;1.13;;
71166;SDS011;58864;45.928;20.078;2023-08-08T10:07:09;4.90;;;0.90;;
71166;SDS011;58864;45.928;20.078;2023-08-08T10:09:33;3.67;;;0.90;;
71166;SDS011;58864;45.928;20.078;2023-08-08T10:11:58;4.85;;;1.10;;
71166;SDS011;58864;45.928;20.078;2023-08-08T10:14:28;5.23;;;1.17;;
71166;SDS011;58864;45.928;20.078;2023-08-08T10:16:55;4.55;;;1.30;;
71166;SDS011;58864;45.928;20.078;2023-08-08T10:19:21;5.32;;;1.20;;
71166;SDS011;58864;45.928;20.078;2023-08-08T10:21:46;9.27;;;1.25;;
71166;SDS011;58864;45.928;20.078;2023-08-08T10:24:10;4.50;;;1.10;;
71166;SDS011;58864;45.928;20.078;2023-08-08T10:26:54;4.20;;;0.87;;
71166;SDS011;58864;45.928;20.078;2023-08-08T10:29:21;4.80;;;1.20;;
71166;SDS011;58864;45.928;20.078;2023-08-08T10:31:52;4.85;;;1.10;;
71166;SDS011;58864;45.928;20.078;2023-08-08T10:34:19;3.67;;;0.93;;
71166;SDS011;58864;45.928;20.078;2023-08-08T10:36:50;3.53;;;0.70;;
71166;SDS011;58864;45.928;20.078;2023-08-08T10:39:16;4.80;;;1.10;;
71166;SDS011;58864;45.928;20.078;2023-08-08T10:41:49;3.30;;;0.90;;
71166;SDS011;58864;45.928;20.078;2023-08-08T10:44:21;4.10;;;0.85;;
71166;SDS011;58864;45.928;20.078;2023-08-08T10:46:46;4.50;;;1.00;;
71166;SDS011;58864;45.928;20.078;2023-08-08T10:49:11;4.43;;;0.80;;
71166;SDS011;58864;45.928;20.078;2023-08-08T10:51:36;4.18;;;0.90;;
71166;SDS011;58864;45.928;20.078;2023-08-08T10:54:05;3.78;;;0.65;;
71166;SDS011;58864;45.928;20.078;2023-08-08T10:56:30;4.17;;;0.70;;
71166;SDS011;58864;45.928;20.078;2023-08-08T10:58:55;4.28;;;0.95;;
71166;SDS011;58864;45.928;20.078;2023-08-08T11:01:24;3.70;;;0.70;;
71166;SDS011;58864;45.928;20.078;2023-08-08T11:03:49;3.13;;;0.70;;
71166;SDS011;58864;45.928;20.078;2023-08-08T11:06:14;4.00;;;0.80;;
71166;SDS011;58864;45.928;20.078;2023-08-08T11:08:38;3.07;;;0.70;;
71166;SDS011;58864;45.928;20.078;2023-08-08T11:11:03;5.20;;;0.95;;
71166;SDS011;58864;45.928;20.078;2023-08-08T11:13:27;3.57;;;0.63;;
71166;SDS011;58864;45.928;20.078;2023-08-08T11:15:52;3.37;;;0.70;;
71166;SDS011;58864;45.928;20.078;2023-08-08T11:18:16;4.40;;;0.70;;
71166;SDS011;58864;45.928;20.078;2023-08-08T11:20:41;4.38;;;0.80;;
71166;SDS011;58864;45.928;20.078;2023-08-08T11:23:06;4.27;;;0.60;;
71166;SDS011;58864;45.928;20.078;2023-08-08T11:25:34;3.65;;;0.75;;
71166;SDS011;58864;45.928;20.078;2023-08-08T11:27:58;3.30;;;0.70;;
71166;SDS011;58864;45.928;20.078;2023-08-08T11:30:23;3.10;;;0.70;;
71166;SDS011;58864;45.928;20.078;2023-08-08T11:32:52;7.57;;;0.90;;
71166;SDS011;58864;45.928;20.078;2023-08-08T11:35:17;3.53;;;0.80;;
71166;SDS011;58864;45.928;20.078;2023-08-08T11:37:42;4.40;;;0.90;;
71166;SDS011;58864;45.928;20.078;2023-08-08T11:40:11;4.97;;;1.00;;
71166;SDS011;58864;45.928;20.078;2023-08-08T11:42:36;5.83;;;0.60;;
71166;SDS011;58864;45.928;20.078;2023-08-08T11:45:02;3.70;;;0.70;;
71166;SDS011;58864;45.928;20.078;2023-08-08T11:47:28;5.20;;;0.75;;
71166;SDS011;58864;45.928;20.078;2023-08-08T11:49:59;4.43;;;1.00;;
71166;SDS011;58864;45.928;20.078;2023-08-08T11:52:23;4.17;;;0.90;;
71166;SDS011;58864;45.928;20.078;2023-08-08T11:54:51;4.10;;;0.60;;
71166;SDS011;58864;45.928;20.078;2023-08-08T11:57:16;3.25;;;0.80;;
71166;SDS011;58864;45.928;20.078;2023-08-08T11:59:40;3.63;;;0.77;;
71166;SDS011;58864;45.928;20.078;2023-08-08T12:02:05;2.50;;;0.68;;
71166;SDS011;58864;45.928;20.078;2023-08-08T12:04:29;4.67;;;0.70;;
71166;SDS011;58864;45.928;20.078;2023-08-08T12:07:12;4.30;;;0.80;;
71166;SDS011;58864;45.928;20.078;2023-08-08T12:09:37;4.13;;;0.90;;
71166;SDS011;58864;45.928;20.078;2023-08-08T12:12:02;5.25;;;1.00;;
71166;SDS011;58864;45.928;20.078;2023-08-08T12:14:28;3.53;;;1.05;;
71166;SDS011;58864;45.928;20.078;2023-08-08T12:16:53;7.00;;;1.13;;
71166;SDS011;58864;45.928;20.078;2023-08-08T12:19:21;4.57;;;0.85;;
71166;SDS011;58864;45.928;20.078;2023-08-08T12:21:47;5.15;;;1.00;;
71166;SDS011;58864;45.928;20.078;2023-08-08T12:24:11;3.43;;;1.00;;
71166;SDS011;58864;45.928;20.078;2023-08-08T12:26:35;3.53;;;0.80;;
71166;SDS011;58864;45.928;20.078;2023-08-08T12:29:00;3.95;;;0.82;;
71166;SDS011;58864;45.928;20.078;2023-08-08T12:31:25;3.53;;;0.70;;
71166;SDS011;58864;45.928;20.078;2023-08-08T12:33:49;4.30;;;0.95;;
71166;SDS011;58864;45.928;20.078;2023-08-08T12:36:14;4.50;;;1.00;;
71166;SDS011;58864;45.928;20.078;2023-08-08T12:38:38;3.87;;;0.70;;
71166;SDS011;58864;45.928;20.078;2023-08-08T12:41:03;3.25;;;0.80;;
71166;SDS011;58864;45.928;20.078;2023-08-08T12:43:27;3.60;;;0.70;;
71166;SDS011;58864;45.928;20.078;2023-08-08T12:45:52;2.83;;;0.70;;
71166;SDS011;58864;45.928;20.078;2023-08-08T12:48:16;4.20;;;0.90;;
71166;SDS011;58864;45.928;20.078;2023-08-08T12:50:41;4.07;;;0.80;;
71166;SDS011;58864;45.928;20.078;2023-08-08T12:53:05;4.53;;;0.77;;
71166;SDS011;58864;45.928;20.078;2023-08-08T12:55:30;3.80;;;0.87;;
71166;SDS011;58864;45.928;20.078;2023-08-08T12:57:55;4.20;;;0.90;;
71166;SDS011;58864;45.928;20.078;2023-08-08T13:00:19;5.70;;;1.00;;
71166;SDS011;58864;45.928;20.078;2023-08-08T13:02:44;6.95;;;1.13;;
71166;SDS011;58864;45.928;20.078;2023-08-08T13:05:08;4.07;;;0.70;;
71166;SDS011;58864;45.928;20.078;2023-08-08T13:07:33;4.05;;;0.85;;
71166;SDS011;58864;45.928;20.078;2023-08-08T13:09:58;3.60;;;0.87;;
71166;SDS011;58864;45.928;20.078;2023-08-08T13:12:22;3.13;;;0.90;;
71166;SDS011;58864;45.928;20.078;2023-08-08T13:14:47;3.90;;;0.95;;
71166;SDS011;58864;45.928;20.078;2023-08-08T13:17:11;3.93;;;0.90;;
71166;SDS011;58864;45.928;20.078;2023-08-08T13:19:36;3.97;;;1.10;;
71166;SDS011;58864;45.928;20.078;2023-08-08T13:22:00;4.00;;;0.90;;
71166;SDS011;58864;45.928;20.078;2023-08-08T13:24:24;2.88;;;0.60;;
71166;SDS011;58864;45.928;20.078;2023-08-08T13:26:49;4.37;;;0.90;;
71166;SDS011;58864;45.928;20.078;2023-08-08T13:29:14;6.22;;;1.60;;
71166;SDS011;58864;45.928;20.078;2023-08-08T13:31:38;4.20;;;0.80;;
71166;SDS011;58864;45.928;20.078;2023-08-08T13:34:03;4.97;;;0.70;;
71166;SDS011;58864;45.928;20.078;2023-08-08T13:36:27;3.90;;;1.13;;
71166;SDS011;58864;45.928;20.078;2023-08-08T13:38:52;6.33;;;1.00;;
71166;SDS011;58864;45.928;20.078;2023-08-08T13:41:16;5.27;;;1.10;;
71166;SDS011;58864;45.928;20.078;2023-08-08T13:43:41;4.05;;;1.00;;
71166;SDS011;58864;45.928;20.078;2023-08-08T13:46:05;4.40;;;0.90;;
71166;SDS011;58864;45.928;20.078;2023-08-08T13:48:33;3.63;;;0.90;;
71166;SDS011;58864;45.928;20.078;2023-08-08T13:50:58;4.13;;;0.90;;
71166;SDS011;58864;45.928;20.078;2023-08-08T13:53:23;3.83;;;0.80;;
71166;SDS011;58864;45.928;20.078;2023-08-08T13:55:47;3.47;;;0.90;;
71166;SDS011;58864;45.928;20.078;2023-08-08T13:58:12;3.95;;;0.88;;
71166;SDS011;58864;45.928;20.078;2023-08-08T14:00:36;4.83;;;1.00;;
71166;SDS011;58864;45.928;20.078;2023-08-08T14:03:01;5.30;;;1.00;;
71166;SDS011;58864;45.928;20.078;2023-08-08T14:05:26;4.22;;;0.80;;
71166;SDS011;58864;45.928;20.078;2023-08-08T14:07:52;4.22;;;0.82;;
71166;SDS011;58864;45.928;20.078;2023-08-08T14:10:16;5.03;;;1.10;;
71166;SDS011;58864;45.928;20.078;2023-08-08T14:12:41;3.85;;;0.90;;
71166;SDS011;58864;45.928;20.078;2023-08-08T14:15:05;3.47;;;0.93;;
71166;SDS011;58864;45.928;20.078;2023-08-08T14:17:30;6.78;;;2.03;;
71166;SDS011;58864;45.928;20.078;2023-08-08T14:19:55;6.53;;;1.40;;
71166;SDS011;58864;45.928;20.078;2023-08-08T14:22:19;5.07;;;1.70;;